createdAt,value
2022-10-12T00:00:19.722Z,80.11
2022-10-12T00:02:48.502Z,80.76
2022-10-12T00:05:16.037Z,80.49
2022-10-12T00:07:43.525Z,80.15
2022-10-12T00:10:10.997Z,80.38
2022-10-12T00:12:38.851Z,80.20
2022-10-12T00:15:07.064Z,81.00
2022-10-12T00:17:34.668Z,80.50
2022-10-12T00:20:03.803Z,80.28
2022-10-12T00:22:31.283Z,80.66
2022-10-12T00:24:58.741Z,80.46
2022-10-12T00:27:26.220Z,79.83
2022-10-12T00:29:53.737Z,79.90
2022-10-12T00:32:21.586Z,80.19
2022-10-12T00:34:49.054Z,80.13
2022-10-12T00:37:17.905Z,79.95
2022-10-12T00:39:45.779Z,80.11
2022-10-12T00:42:13.374Z,80.36
2022-10-12T00:44:43.701Z,80.23
2022-10-12T00:47:18.581Z,80.10
2022-10-12T00:49:48.681Z,80.23
2022-10-12T00:52:18.801Z,80.29
2022-10-12T00:54:48.251Z,80.14
2022-10-12T00:57:17.216Z,80.36
2022-10-12T00:59:47.341Z,80.35
2022-10-12T01:02:14.932Z,79.83
2022-10-12T01:04:42.516Z,81.18
2022-10-12T01:07:10.083Z,80.56
2022-10-12T01:09:39.120Z,80.77
2022-10-12T01:12:08.393Z,80.53
2022-10-12T01:14:36.565Z,80.33
2022-10-12T01:17:10.673Z,80.96
2022-10-12T01:20:14.595Z,80.37
2022-10-12T01:22:46.712Z,80.21
2022-10-12T01:25:26.217Z,80.37
2022-10-12T01:27:55.450Z,80.74
2022-10-12T01:30:25.265Z,80.75
2022-10-12T01:33:07.993Z,80.68
2022-10-12T01:35:40.697Z,80.95
2022-10-12T01:38:14.170Z,80.56
2022-10-12T01:40:47.048Z,80.60
2022-10-12T01:43:18.039Z,80.63
2022-10-12T01:45:46.906Z,80.25
2022-10-12T01:48:14.476Z,80.16
2022-10-12T01:50:49.660Z,80.71
2022-10-12T01:53:23.846Z,80.83
2022-10-12T01:55:55.574Z,80.79
2022-10-12T01:58:33.595Z,80.47
2022-10-12T02:01:09.054Z,81.16
2022-10-12T02:03:41.350Z,81.01
2022-10-12T02:06:11.022Z,81.29
2022-10-12T02:08:42.368Z,81.14
2022-10-12T02:11:12.353Z,81.37
2022-10-12T02:13:41.384Z,81.64
2022-10-12T02:16:12.117Z,81.25
2022-10-12T02:18:41.379Z,80.79
2022-10-12T02:21:09.558Z,80.83
2022-10-12T02:23:37.676Z,80.87
2022-10-12T02:26:06.309Z,80.99
2022-10-12T02:28:35.769Z,81.59
2022-10-12T02:31:08.634Z,82.46
2022-10-12T02:33:41.018Z,82.02
2022-10-12T02:36:12.625Z,81.58
2022-10-12T02:38:43.715Z,81.69
2022-10-12T02:41:14.929Z,81.61
2022-10-12T02:43:44.819Z,81.23
2022-10-12T02:46:12.520Z,81.78
2022-10-12T02:48:41.685Z,81.87
2022-10-12T02:51:10.526Z,82.01
2022-10-12T02:53:38.416Z,82.00
2022-10-12T02:56:08.689Z,82.34
2022-10-12T02:58:36.185Z,82.25
2022-10-12T03:01:03.753Z,82.41
2022-10-12T03:03:31.296Z,82.71
2022-10-12T03:06:00.143Z,83.26
2022-10-12T03:08:27.607Z,82.86
2022-10-12T03:10:55.081Z,83.34
2022-10-12T03:13:22.547Z,83.35
2022-10-12T03:15:49.986Z,83.38
2022-10-12T03:18:17.450Z,82.99
2022-10-12T03:20:48.797Z,82.69
2022-10-12T03:23:17.617Z,82.72
2022-10-12T03:25:45.082Z,82.31
2022-10-12T03:28:12.625Z,82.52
2022-10-12T03:30:40.123Z,83.48
2022-10-12T03:33:07.591Z,82.93
2022-10-12T03:35:35.069Z,83.73
2022-10-12T03:38:02.523Z,83.96
2022-10-12T03:40:31.380Z,83.57
2022-10-12T03:42:58.829Z,84.08
2022-10-12T03:45:26.261Z,84.01
2022-10-12T03:47:53.737Z,83.19
2022-10-12T03:50:21.193Z,83.48
2022-10-12T03:52:48.775Z,83.33
2022-10-12T03:55:16.618Z,83.58
2022-10-12T03:57:45.666Z,83.95
2022-10-12T04:00:14.602Z,83.19
2022-10-12T04:02:42.269Z,83.50
2022-10-12T04:05:10.239Z,83.95
2022-10-12T04:07:38.210Z,83.52
2022-10-12T04:10:07.195Z,83.50
2022-10-12T04:12:34.728Z,83.33
2022-10-12T04:15:03.559Z,84.00
2022-10-12T04:17:31.053Z,83.52
2022-10-12T04:19:58.535Z,83.74
2022-10-12T04:22:26.132Z,82.95
2022-10-12T04:24:53.599Z,82.54
2022-10-12T04:27:21.239Z,83.44
2022-10-12T04:29:48.720Z,83.13
2022-10-12T04:32:17.533Z,83.02
2022-10-12T04:34:44.994Z,83.23
2022-10-12T04:37:12.466Z,83.03
2022-10-12T04:39:39.924Z,82.65
2022-10-12T04:42:07.810Z,82.53
2022-10-12T04:44:35.531Z,83.21
2022-10-12T04:47:03.422Z,82.87
2022-10-12T04:49:32.304Z,83.93
2022-10-12T04:51:59.949Z,83.67
2022-10-12T04:54:27.425Z,82.55
2022-10-12T04:56:54.888Z,83.70
2022-10-12T04:59:22.365Z,83.23
2022-10-12T05:01:49.891Z,83.99
2022-10-12T05:04:17.404Z,83.63
2022-10-12T05:06:46.186Z,83.38
2022-10-12T05:09:23.070Z,83.16
2022-10-12T05:11:50.530Z,83.84
2022-10-12T05:14:17.993Z,83.70
2022-10-12T05:16:45.620Z,84.08
2022-10-12T05:19:13.076Z,83.31
2022-10-12T05:21:40.671Z,84.40
2022-10-12T05:24:09.560Z,84.74
2022-10-12T05:26:37.097Z,84.47
2022-10-12T05:29:04.778Z,84.09
2022-10-12T05:31:32.253Z,83.94
2022-10-12T05:33:59.726Z,84.32
2022-10-12T05:36:27.152Z,83.28
2022-10-12T05:38:54.660Z,84.06
2022-10-12T05:41:33.627Z,84.61
2022-10-12T05:44:01.093Z,83.93
2022-10-12T05:46:28.547Z,84.89
2022-10-12T05:48:56.014Z,84.98
2022-10-12T05:51:28.609Z,84.04
2022-10-12T05:53:56.452Z,84.79
2022-10-12T05:56:25.231Z,84.26
2022-10-12T05:58:52.699Z,84.47
2022-10-12T06:01:20.154Z,84.62
2022-10-12T06:03:47.630Z,83.89
2022-10-12T06:06:15.096Z,84.13
2022-10-12T06:08:42.751Z,84.59
2022-10-12T06:11:10.235Z,84.54
2022-10-12T06:13:39.049Z,83.66
2022-10-12T06:16:07.026Z,83.70
2022-10-12T06:18:34.526Z,84.14
2022-10-12T06:21:31.982Z,84.28
2022-10-12T06:23:49.420Z,84.51
2022-10-12T06:26:17.357Z,84.40
2022-10-12T06:28:46.246Z,83.73
2022-10-12T06:31:15.063Z,83.91
2022-10-12T06:33:42.584Z,84.72
2022-10-12T06:36:10.047Z,83.23
2022-10-12T06:38:37.571Z,83.40
2022-10-12T06:41:07.814Z,83.70
2022-10-12T06:43:35.335Z,83.29
2022-10-12T06:46:04.544Z,83.84
2022-10-12T06:48:32.137Z,83.68
2022-10-12T06:50:59.624Z,83.49
2022-10-12T06:53:28.746Z,83.63
2022-10-12T06:55:56.387Z,83.95
2022-10-12T06:58:23.865Z,84.80
2022-10-12T07:00:51.546Z,82.83
2022-10-12T07:03:20.390Z,82.80
2022-10-12T07:05:47.868Z,82.67
2022-10-12T07:08:15.349Z,82.70
2022-10-12T07:10:42.854Z,81.95
2022-10-12T07:13:10.320Z,82.03
2022-10-12T07:15:37.814Z,82.54
2022-10-12T07:18:05.371Z,82.33
2022-10-12T07:20:34.190Z,81.79
2022-10-12T07:23:01.656Z,82.18
2022-10-12T07:25:29.169Z,81.75
2022-10-12T07:27:56.676Z,81.52
2022-10-12T07:30:24.127Z,81.91
2022-10-12T07:32:51.628Z,81.34
2022-10-12T07:35:19.130Z,81.57
2022-10-12T07:37:49.497Z,81.34
2022-10-12T07:40:17.071Z,81.33
2022-10-12T07:43:05.409Z,81.28
2022-10-12T07:45:31.990Z,80.76
2022-10-12T07:47:59.533Z,80.75
2022-10-12T07:50:27.119Z,80.17
2022-10-12T07:52:55.975Z,80.48
2022-10-12T07:55:23.455Z,80.64
2022-10-12T07:57:50.997Z,80.41
2022-10-12T08:00:21.000Z,80.57
2022-10-12T08:02:48.456Z,79.44
2022-10-12T08:05:16.053Z,78.90
2022-10-12T08:07:43.521Z,78.78
2022-10-12T08:10:12.497Z,78.58
2022-10-12T08:12:39.943Z,78.66
2022-10-12T08:15:08.280Z,78.54
2022-10-12T08:17:35.816Z,78.66
2022-10-12T08:20:03.635Z,78.67
2022-10-12T08:22:31.103Z,77.65
2022-10-12T08:24:58.587Z,77.21
2022-10-12T08:27:30.888Z,77.20
2022-10-12T08:29:58.413Z,77.46
2022-10-12T08:32:25.957Z,76.78
2022-10-12T08:34:53.484Z,76.51
2022-10-12T08:37:20.966Z,76.92
2022-10-12T08:39:48.475Z,76.64
2022-10-12T08:42:26.164Z,76.60
2022-10-12T08:45:02.721Z,76.65
2022-10-12T08:47:35.781Z,76.32
2022-10-12T08:50:04.371Z,75.04
2022-10-12T08:52:34.787Z,75.09
2022-10-12T08:55:06.381Z,75.14
2022-10-12T08:57:35.309Z,75.36
2022-10-12T09:00:04.983Z,74.44
2022-10-12T09:02:50.779Z,74.11
2022-10-12T09:05:22.455Z,74.38
2022-10-12T09:07:56.491Z,73.80
2022-10-12T09:10:34.117Z,73.88
2022-10-12T09:13:08.621Z,74.41
2022-10-12T09:15:40.393Z,74.24
2022-10-12T09:18:17.148Z,73.61
2022-10-12T09:20:47.788Z,72.80
2022-10-12T09:23:24.360Z,74.14
2022-10-12T09:25:52.127Z,74.13
2022-10-12T09:28:24.239Z,72.82
2022-10-12T09:31:02.828Z,73.27
2022-10-12T09:33:33.373Z,72.02
2022-10-12T09:36:00.941Z,71.97
2022-10-12T09:38:28.404Z,72.47
2022-10-12T09:40:55.879Z,72.79
2022-10-12T09:43:23.381Z,72.61
2022-10-12T09:45:50.991Z,72.40
2022-10-12T09:48:21.685Z,71.42
2022-10-12T09:50:51.873Z,71.29
2022-10-12T09:53:23.431Z,71.68
2022-10-12T09:55:55.775Z,72.08
2022-10-12T09:58:23.632Z,70.75
2022-10-12T10:01:16.457Z,72.18
2022-10-12T10:03:45.744Z,73.80
2022-10-12T10:06:15.192Z,74.20
2022-10-12T10:08:44.328Z,73.23
2022-10-12T10:11:17.366Z,73.32
2022-10-12T10:13:48.816Z,72.86
2022-10-12T10:16:16.900Z,73.43
2022-10-12T10:18:48.836Z,73.30
2022-10-12T10:21:18.001Z,73.33
2022-10-12T10:23:51.664Z,72.72
2022-10-12T10:26:20.976Z,72.20
2022-10-12T10:28:50.061Z,72.55
2022-10-12T10:31:21.866Z,71.34
2022-10-12T10:34:21.636Z,70.80
2022-10-12T10:36:51.411Z,70.85
2022-10-12T10:39:21.636Z,70.69
2022-10-12T10:41:49.701Z,70.61
2022-10-12T10:44:24.859Z,70.47
2022-10-12T10:46:53.239Z,71.13
2022-10-12T10:49:29.620Z,70.55
2022-10-12T10:51:58.908Z,71.42
2022-10-12T10:54:28.919Z,70.75
2022-10-12T10:57:00.852Z,70.33
2022-10-12T10:59:37.560Z,70.15
2022-10-12T11:02:20.884Z,69.48
2022-10-12T11:04:52.802Z,69.63
2022-10-12T11:07:24.836Z,69.31
2022-10-12T11:09:55.085Z,68.90
2022-10-12T11:12:31.075Z,69.04
2022-10-12T11:15:05.873Z,69.35
2022-10-12T11:17:35.053Z,69.47
2022-10-12T11:20:17.233Z,69.02
2022-10-12T11:22:49.772Z,68.74
2022-10-12T11:25:22.625Z,67.69
2022-10-12T11:27:53.744Z,68.17
2022-10-12T11:30:22.792Z,68.12
2022-10-12T11:32:52.731Z,67.91
2022-10-12T11:35:27.728Z,67.90
2022-10-12T11:37:57.141Z,67.12
2022-10-12T11:40:55.737Z,66.84
2022-10-12T11:43:19.465Z,66.77
2022-10-12T11:45:49.844Z,66.69
2022-10-12T11:48:24.891Z,66.20
2022-10-12T11:50:58.949Z,65.38
2022-10-12T11:53:36.332Z,65.88
2022-10-12T11:56:09.337Z,66.18
2022-10-12T11:59:00.099Z,65.67
2022-10-12T12:01:44.876Z,65.17
2022-10-12T12:04:41.699Z,66.00
2022-10-12T12:07:53.213Z,66.88
2022-10-12T12:11:00.639Z,65.16
2022-10-12T12:13:30.148Z,65.20
2022-10-12T12:16:32.609Z,65.01
2022-10-12T12:19:18.511Z,65.46
2022-10-12T12:22:26.369Z,66.12
2022-10-12T12:25:16.691Z,65.86
2022-10-12T12:27:45.960Z,64.21
2022-10-12T12:30:39.086Z,64.49
2022-10-12T12:33:26.213Z,64.62
2022-10-12T12:35:55.754Z,64.95
2022-10-12T12:38:32.084Z,64.58
2022-10-12T12:41:09.041Z,64.50
2022-10-12T12:43:56.076Z,64.51
2022-10-12T12:46:27.044Z,65.25
2022-10-12T12:49:00.146Z,66.99
2022-10-12T12:51:37.610Z,66.91
2022-10-12T12:54:08.354Z,66.57
2022-10-12T12:56:42.153Z,65.82
2022-10-12T12:59:34.081Z,65.71
2022-10-12T13:02:19.622Z,66.77
2022-10-12T13:05:08.680Z,67.34
2022-10-12T13:07:48.964Z,66.79
2022-10-12T13:10:32.861Z,67.01
2022-10-12T13:13:12.413Z,66.92
2022-10-12T13:15:46.757Z,67.33
2022-10-12T13:18:52.463Z,66.50
2022-10-12T13:21:21.516Z,66.89
2022-10-12T13:23:51.330Z,65.94
2022-10-12T13:26:23.301Z,65.67
2022-10-12T13:28:51.552Z,66.30
2022-10-12T13:31:21.526Z,65.51
2022-10-12T13:33:58.260Z,66.45
2022-10-12T13:36:28.165Z,66.77
2022-10-12T13:38:56.865Z,66.07
2022-10-12T13:41:25.488Z,67.92
2022-10-12T13:43:54.959Z,66.78
2022-10-12T13:46:41.620Z,66.80
2022-10-12T13:49:18.846Z,66.99
2022-10-12T13:51:47.755Z,67.47
2022-10-12T13:54:17.036Z,68.34
2022-10-12T13:56:46.062Z,67.36
2022-10-12T13:59:19.105Z,66.79
2022-10-12T14:01:59.033Z,66.92
2022-10-12T14:04:31.100Z,67.06
2022-10-12T14:07:02.085Z,67.57
2022-10-12T14:09:37.558Z,68.34
2022-10-12T14:12:05.605Z,68.78
2022-10-12T14:14:35.066Z,68.79
2022-10-12T14:17:03.090Z,68.64
2022-10-12T14:19:42.633Z,69.00
2022-10-12T14:22:10.438Z,69.74
2022-10-12T14:24:38.357Z,68.85
2022-10-12T14:27:07.841Z,67.97
2022-10-12T14:29:37.856Z,68.10
2022-10-12T14:32:06.871Z,68.45
2022-10-12T14:34:43.889Z,69.42
2022-10-12T14:37:27.655Z,69.50
2022-10-12T14:40:00.245Z,69.58
2022-10-12T14:42:33.534Z,69.85
2022-10-12T14:45:01.616Z,69.79
2022-10-12T14:47:30.747Z,70.78
2022-10-12T14:50:00.809Z,70.02
2022-10-12T14:52:31.810Z,69.65
2022-10-12T14:55:00.041Z,69.37
2022-10-12T14:57:29.910Z,69.87
2022-10-12T14:59:57.842Z,71.51
2022-10-12T15:02:27.328Z,69.84
2022-10-12T15:04:56.235Z,69.76
2022-10-12T15:07:27.037Z,70.23
2022-10-12T15:09:54.740Z,70.09
2022-10-12T15:12:23.987Z,69.55
2022-10-12T15:14:51.824Z,72.00
2022-10-12T15:17:20.409Z,71.30
2022-10-12T15:19:49.320Z,71.24
2022-10-12T15:22:19.424Z,71.16
2022-10-12T15:24:48.663Z,71.43
2022-10-12T15:27:16.390Z,71.90
2022-10-12T15:29:44.269Z,72.25
2022-10-12T15:32:13.324Z,72.24
2022-10-12T15:34:40.812Z,71.90
2022-10-12T15:37:12.142Z,72.19
2022-10-12T15:39:39.883Z,72.17
2022-10-12T15:42:08.685Z,73.18
2022-10-12T15:44:40.414Z,72.88
2022-10-12T15:47:09.373Z,73.36
2022-10-12T15:49:36.809Z,72.73
2022-10-12T15:52:04.525Z,73.31
2022-10-12T15:54:32.052Z,74.08
2022-10-12T15:56:59.957Z,73.94
2022-10-12T15:59:29.060Z,73.92
2022-10-12T16:01:56.522Z,74.16
2022-10-12T16:04:23.960Z,74.41
2022-10-12T16:06:51.576Z,74.47
2022-10-12T16:09:19.178Z,74.66
2022-10-12T16:11:46.778Z,74.52
2022-10-12T16:14:15.750Z,75.41
2022-10-12T16:16:44.667Z,74.96
2022-10-12T16:19:12.402Z,76.19
2022-10-12T16:21:39.961Z,76.77
2022-10-12T16:24:07.774Z,77.18
2022-10-12T16:26:35.689Z,77.05
2022-10-12T16:29:03.244Z,77.26
2022-10-12T16:31:30.809Z,77.21
2022-10-12T16:34:00.027Z,77.08
2022-10-12T16:36:27.676Z,77.91
2022-10-12T16:38:55.338Z,77.90
2022-10-12T16:41:23.116Z,78.36
2022-10-12T16:43:50.849Z,79.07
2022-10-12T16:46:18.704Z,79.31
2022-10-12T16:48:46.251Z,78.97
2022-10-12T16:51:15.404Z,79.03
2022-10-12T16:53:43.915Z,79.27
2022-10-12T16:56:11.540Z,79.95
2022-10-12T16:58:39.030Z,80.82
2022-10-12T17:01:10.757Z,80.43
2022-10-12T17:03:38.288Z,80.62
2022-10-12T17:06:06.130Z,80.70
2022-10-12T17:08:36.047Z,80.90
2022-10-12T17:11:06.584Z,80.75
2022-10-12T17:13:36.776Z,82.92
2022-10-12T17:16:25.362Z,83.40
2022-10-12T17:18:58.170Z,83.79
2022-10-12T17:21:26.847Z,83.72
2022-10-12T17:23:58.023Z,83.62
2022-10-12T17:26:25.854Z,83.72
2022-10-12T17:28:53.449Z,83.74
2022-10-12T17:31:20.946Z,84.26
2022-10-12T17:33:49.034Z,84.84
2022-10-12T17:36:16.626Z,84.48
2022-10-12T17:38:44.393Z,83.73
2022-10-12T17:41:13.471Z,84.55
2022-10-12T17:43:41.217Z,84.57
2022-10-12T17:46:08.994Z,84.95
2022-10-12T17:48:36.538Z,85.35
2022-10-12T17:51:04.673Z,85.63
2022-10-12T17:53:33.163Z,85.93
2022-10-12T17:56:05.341Z,85.73
2022-10-12T17:58:36.249Z,85.50
2022-10-12T18:01:05.473Z,84.81
2022-10-12T18:03:33.203Z,85.00
2022-10-12T18:06:04.539Z,84.84
2022-10-12T18:08:32.232Z,85.65
2022-10-12T18:11:00.369Z,85.56
2022-10-12T18:13:28.559Z,85.32
2022-10-12T18:16:01.171Z,85.56
2022-10-12T18:18:30.478Z,86.46
2022-10-12T18:20:58.142Z,86.11
2022-10-12T18:23:25.806Z,86.33
2022-10-12T18:25:53.427Z,86.76
2022-10-12T18:28:21.249Z,87.23
2022-10-12T18:30:50.080Z,87.74
2022-10-12T18:33:19.043Z,88.41
2022-10-12T18:35:46.760Z,88.72
2022-10-12T18:38:14.367Z,88.96
2022-10-12T18:40:42.636Z,88.97
2022-10-12T18:43:10.810Z,89.02
2022-10-12T18:45:42.418Z,89.59
2022-10-12T18:48:10.334Z,89.29
2022-10-12T18:50:39.910Z,88.78
2022-10-12T18:53:07.911Z,89.04
2022-10-12T18:55:37.392Z,89.04
2022-10-12T18:58:05.326Z,88.62
2022-10-12T19:00:33.072Z,88.55
2022-10-12T19:03:00.654Z,89.15
2022-10-12T19:05:28.317Z,89.43
2022-10-12T19:07:57.214Z,88.85
2022-10-12T19:10:24.855Z,88.98
2022-10-12T19:12:52.362Z,89.07
2022-10-12T19:15:19.929Z,89.71
2022-10-12T19:17:47.468Z,89.15
2022-10-12T19:20:15.106Z,89.92
2022-10-12T19:22:42.705Z,90.17
2022-10-12T19:25:11.771Z,90.28
2022-10-12T19:27:39.304Z,90.42
2022-10-12T19:30:08.450Z,90.17
2022-10-12T19:32:36.035Z,89.62
2022-10-12T19:35:03.761Z,89.53
2022-10-12T19:37:31.366Z,90.35
2022-10-12T19:39:58.966Z,89.76
2022-10-12T19:42:27.842Z,90.49
2022-10-12T19:44:55.387Z,90.52
2022-10-12T19:47:23.285Z,90.64
2022-10-12T19:49:50.957Z,90.36
2022-10-12T19:52:18.989Z,90.29
2022-10-12T19:54:46.936Z,90.86
2022-10-12T19:57:16.305Z,90.95
2022-10-12T19:59:45.238Z,89.98
2022-10-12T20:02:12.874Z,89.31
2022-10-12T20:04:40.645Z,89.42
2022-10-12T20:07:08.246Z,89.98
2022-10-12T20:09:35.808Z,89.74
2022-10-12T20:12:03.392Z,90.27
2022-10-12T20:14:31.178Z,89.98
2022-10-12T20:17:00.131Z,88.91
2022-10-12T20:19:27.714Z,89.82
2022-10-12T20:21:55.270Z,90.24
2022-10-12T20:24:22.883Z,90.55
2022-10-12T20:26:50.432Z,90.55
2022-10-12T20:29:17.979Z,90.34
2022-10-12T20:31:45.636Z,90.41
2022-10-12T20:34:14.510Z,90.08
2022-10-12T20:36:42.269Z,90.41
2022-10-12T20:39:09.915Z,89.73
2022-10-12T20:41:40.103Z,89.11
2022-10-12T20:44:08.191Z,89.46
2022-10-12T20:46:35.763Z,89.88
2022-10-12T20:49:04.818Z,90.45
2022-10-12T20:51:35.780Z,90.45
2022-10-12T20:54:05.570Z,91.03
2022-10-12T20:56:34.211Z,91.70
2022-10-12T20:59:02.082Z,91.01
2022-10-12T21:01:30.694Z,90.60
2022-10-12T21:03:58.362Z,91.25
2022-10-12T21:06:26.020Z,92.20
2022-10-12T21:08:56.514Z,92.05
2022-10-12T21:11:24.593Z,92.49
2022-10-12T21:13:52.201Z,92.84
2022-10-12T21:16:20.436Z,92.89
2022-10-12T21:18:48.034Z,92.99
2022-10-12T21:21:17.092Z,92.88
2022-10-12T21:23:45.777Z,92.79
2022-10-12T21:26:16.344Z,92.61
2022-10-12T21:28:44.446Z,92.21
2022-10-12T21:31:12.852Z,92.65
2022-10-12T21:33:40.786Z,92.04
2022-10-12T21:36:10.028Z,91.94
2022-10-12T21:38:37.822Z,91.54
2022-10-12T21:41:05.632Z,91.02
2022-10-12T21:43:34.907Z,89.83
2022-10-12T21:46:04.210Z,89.91
2022-10-12T21:48:32.416Z,88.61
2022-10-12T21:51:00.401Z,89.41
2022-10-12T21:53:28.071Z,90.29
2022-10-12T21:55:55.727Z,90.51
2022-10-12T21:58:23.410Z,90.32
2022-10-12T22:00:52.401Z,91.15
2022-10-12T22:03:20.113Z,91.69
2022-10-12T22:05:47.653Z,91.55
2022-10-12T22:08:15.342Z,91.17
2022-10-12T22:10:43.064Z,91.32
2022-10-12T22:13:10.688Z,91.64
2022-10-12T22:15:38.302Z,92.14
2022-10-12T22:18:07.320Z,92.02
2022-10-12T22:20:36.933Z,92.00
2022-10-12T22:23:04.768Z,92.02
2022-10-12T22:25:32.397Z,91.39
2022-10-12T22:27:59.959Z,91.93
2022-10-12T22:30:27.598Z,91.48
2022-10-12T22:32:55.133Z,91.34
2022-10-12T22:35:24.322Z,91.36
2022-10-12T22:37:52.057Z,91.48
2022-10-12T22:40:19.616Z,91.42
2022-10-12T22:42:47.232Z,91.30
2022-10-12T22:45:15.061Z,91.76
2022-10-12T22:47:42.694Z,92.02
2022-10-12T22:50:10.686Z,91.88
2022-10-12T22:52:39.634Z,91.77
2022-10-12T22:55:08.260Z,92.57
2022-10-12T22:57:35.953Z,91.62
2022-10-12T23:00:03.547Z,91.86
2022-10-12T23:02:30.997Z,92.04
2022-10-12T23:04:58.444Z,91.66
2022-10-12T23:07:25.914Z,91.43
2022-10-12T23:09:54.786Z,91.46
2022-10-12T23:12:22.656Z,91.24
2022-10-12T23:14:50.129Z,91.52
2022-10-12T23:17:17.585Z,91.44
2022-10-12T23:19:45.092Z,91.97
2022-10-12T23:22:12.544Z,91.82
2022-10-12T23:24:40.576Z,92.35
2022-10-12T23:27:09.395Z,91.70
2022-10-12T23:29:36.937Z,92.14
2022-10-12T23:32:04.986Z,91.64
2022-10-12T23:34:32.527Z,91.22
2022-10-12T23:37:00.039Z,92.13
2022-10-12T23:39:27.557Z,92.55
2022-10-12T23:41:55.020Z,92.43
2022-10-12T23:44:23.852Z,92.55
2022-10-12T23:46:51.328Z,92.00
2022-10-12T23:49:18.973Z,92.04
2022-10-12T23:51:46.433Z,91.62
2022-10-12T23:54:13.880Z,92.17
2022-10-12T23:56:41.375Z,92.09
2022-10-12T23:59:08.842Z,91.92
